Time;durP1;ratioP1;P1;durP2;ratioP2;P2;SDS_P1;SDS_P2;PMS_P1;PMS_P2;Temp;Humidity;BMP_temperature;BMP_pressure;BME280_temperature;BME280_humidity;BME280_pressure;Samples;Min_cycle;Max_cycle;Signal;HPM_P1;HPM_P2
2022/09/08 00:03:01;;;;;;;2.78;2.30;;;19.40;97.00;;;;;;10243653;29;20265;-81
2022/09/08 00:08:03;;;;;;;3.15;2.08;;;19.30;96.80;;;;;;10192589;29;20239;-81
2022/09/08 00:13:07;;;;;;;5.90;2.45;;;19.30;96.90;;;;;;10209841;29;20258;-81
2022/09/08 00:18:10;;;;;;;2.95;2.20;;;19.20;97.10;;;;;;10206890;29;20263;-81
2022/09/08 00:23:12;;;;;;;3.43;2.37;;;19.30;97.20;;;;;;10171019;29;20279;-81
2022/09/08 00:28:15;;;;;;;2.53;2.22;;;19.10;97.00;;;;;;10185327;29;20238;-81
2022/09/08 00:33:17;;;;;;;3.72;2.40;;;19.40;96.70;;;;;;10226983;29;20652;-81
2022/09/08 00:38:20;;;;;;;5.13;2.38;;;19.40;96.80;;;;;;10228404;29;20620;-81
2022/09/08 00:43:30;;;;;;;3.67;2.83;;;19.20;96.90;;;;;;10222844;29;20246;-81
2022/09/08 00:48:33;;;;;;;3.35;2.30;;;19.20;96.90;;;;;;10193405;29;20631;-81
2022/09/08 00:53:39;;;;;;;3.47;2.03;;;19.20;96.80;;;;;;10209340;29;20258;-81
2022/09/08 00:58:42;;;;;;;3.87;2.50;;;19.30;96.90;;;;;;10190551;29;20243;-81
2022/09/08 01:03:45;;;;;;;3.28;2.53;;;19.30;96.60;;;;;;10209367;29;20282;-81
2022/09/08 01:14:45;;;;;;;3.25;1.90;;;19.30;96.60;;;;;;10208392;29;20255;-81
2022/09/08 01:19:49;;;;;;;3.72;2.60;;;19.30;96.40;;;;;;10228162;29;20266;-81
2022/09/08 01:25:00;;;;;;;4.07;1.88;;;19.30;96.70;;;;;;10207689;29;20723;-81
2022/09/08 01:30:06;;;;;;;2.67;2.17;;;19.30;96.30;;;;;;10208127;29;20700;-81
2022/09/08 01:35:09;;;;;;;3.83;2.63;;;19.30;96.30;;;;;;10238552;28;20328;-81
2022/09/08 01:40:11;;;;;;;2.67;2.20;;;19.40;96.20;;;;;;10208122;29;20293;-81
2022/09/08 01:45:14;;;;;;;2.55;2.35;;;19.30;96.10;;;;;;10238962;28;20246;-81
2022/09/08 01:50:17;;;;;;;3.47;2.72;;;19.40;96.10;;;;;;10207908;29;20306;-81
2022/09/08 01:55:20;;;;;;;3.17;2.25;;;19.40;96.30;;;;;;10222353;29;20231;-81
2022/09/08 02:00:22;;;;;;;3.33;2.28;;;19.30;96.30;;;;;;10221197;28;20238;-81
2022/09/08 02:05:25;;;;;;;2.65;2.20;;;19.30;95.80;;;;;;10206770;29;20238;-81
2022/09/08 02:10:28;;;;;;;2.88;2.47;;;19.30;95.80;;;;;;10206170;29;20655;-81
2022/09/08 02:15:31;;;;;;;2.80;2.50;;;19.40;95.70;;;;;;10207345;29;20242;-81
2022/09/08 02:20:33;;;;;;;5.53;2.75;;;19.30;95.70;;;;;;10206615;29;20235;-81
2022/09/08 02:25:36;;;;;;;4.10;2.45;;;19.20;95.70;;;;;;10221012;29;20322;-81
2022/09/08 02:30:39;;;;;;;2.42;2.10;;;19.30;95.80;;;;;;10221263;29;20250;-81
2022/09/08 02:35:41;;;;;;;2.78;2.42;;;19.30;95.80;;;;;;10214446;29;20223;-81
2022/09/08 02:40:44;;;;;;;5.53;2.83;;;19.30;95.70;;;;;;10213252;29;20290;-81
2022/09/08 02:45:46;;;;;;;3.60;2.58;;;19.30;95.60;;;;;;10211695;29;20234;-81
2022/09/08 02:50:48;;;;;;;3.90;2.67;;;19.30;95.50;;;;;;10227845;29;20239;-81
2022/09/08 02:55:51;;;;;;;4.50;3.15;;;19.30;95.40;;;;;;10244255;29;20824;-81
2022/09/08 03:00:54;;;;;;;2.35;2.13;;;19.30;94.80;;;;;;10217479;29;20278;-81
2022/09/08 03:05:56;;;;;;;2.90;2.05;;;19.30;95.50;;;;;;10193722;29;20226;-82
2022/09/08 03:11:02;;;;;;;3.35;2.30;;;19.20;95.60;;;;;;10178257;29;21124;-81
2022/09/08 03:16:06;;;;;;;10.70;3.42;;;19.30;95.40;;;;;;10206650;29;20254;-81
2022/09/08 03:21:11;;;;;;;5.53;2.95;;;19.10;95.20;;;;;;10209670;29;20242;-81
2022/09/08 03:26:24;;;;;;;4.13;2.22;;;19.10;91.60;;;;;;10192351;29;20305;-81
2022/09/08 03:31:27;;;;;;;2.72;2.28;;;19.20;93.90;;;;;;10210884;29;20286;-81
2022/09/08 03:36:29;;;;;;;3.53;2.50;;;19.20;95.50;;;;;;10211817;29;20325;-81
2022/09/08 03:41:33;;;;;;;2.95;2.30;;;19.20;94.40;;;;;;10209979;29;20231;-81
2022/09/08 03:46:35;;;;;;;3.93;2.67;;;19.20;95.50;;;;;;10213842;29;20761;-81
2022/09/08 03:51:38;;;;;;;2.83;2.27;;;19.20;95.30;;;;;;10244873;29;20316;-81
2022/09/08 03:56:41;;;;;;;2.83;2.17;;;19.30;95.20;;;;;;10232588;29;20262;-81
2022/09/08 04:01:44;;;;;;;3.70;2.90;;;19.30;95.10;;;;;;10192869;29;20226;-80
2022/09/08 04:06:47;;;;;;;3.03;2.60;;;19.30;95.10;;;;;;10223794;29;20235;-80
2022/09/08 04:11:49;;;;;;;4.85;2.47;;;19.30;95.00;;;;;;10208200;29;20286;-80
2022/09/08 04:16:52;;;;;;;4.40;2.90;;;19.20;95.10;;;;;;10222108;29;20262;-80
2022/09/08 04:21:54;;;;;;;5.13;2.87;;;19.20;94.90;;;;;;10208381;29;20249;-79
2022/09/08 04:26:57;;;;;;;4.00;2.90;;;19.20;95.10;;;;;;10191878;29;20285;-79
2022/09/08 04:32:00;;;;;;;5.72;2.90;;;19.30;94.90;;;;;;10220388;29;20675;-80
2022/09/08 04:37:03;;;;;;;4.60;3.13;;;19.30;94.80;;;;;;10192800;29;20262;-80
2022/09/08 04:42:06;;;;;;;3.88;2.90;;;19.30;94.70;;;;;;10242013;29;20242;-80
2022/09/08 04:47:09;;;;;;;11.55;5.95;;;19.30;94.60;;;;;;10208289;29;20278;-80
2022/09/08 04:52:11;;;;;;;12.20;5.87;;;18.40;89.20;;;;;;10212074;29;20316;-80
2022/09/08 04:57:15;;;;;;;15.20;5.47;;;18.60;89.40;;;;;;10246830;28;20245;-80
2022/09/08 05:02:17;;;;;;;8.73;4.93;;;18.90;89.30;;;;;;10247094;28;20288;-80
2022/09/08 05:07:20;;;;;;;9.53;4.80;;;19.00;88.80;;;;;;10245450;29;20241;-80
2022/09/08 05:12:22;;;;;;;9.40;4.85;;;19.10;88.60;;;;;;10229134;29;20333;-80
2022/09/08 05:17:29;;;;;;;8.45;4.95;;;19.20;88.00;;;;;;10179934;29;20330;-80
2022/09/08 05:22:31;;;;;;;14.35;4.70;;;19.20;88.20;;;;;;10169151;29;20246;-80
2022/09/08 05:27:34;;;;;;;9.97;5.03;;;19.30;88.30;;;;;;10170510;29;20763;-80
2022/09/08 05:32:36;;;;;;;6.67;4.70;;;19.30;87.90;;;;;;10167389;29;20251;-80
2022/09/08 05:37:39;;;;;;;9.37;5.03;;;19.30;88.40;;;;;;10166915;29;20239;-80
2022/09/08 05:42:42;;;;;;;9.03;4.90;;;19.30;88.70;;;;;;10186722;29;20286;-80
2022/09/08 05:47:44;;;;;;;7.80;5.20;;;19.40;88.40;;;;;;10243168;29;20249;-80
2022/09/08 05:52:47;;;;;;;6.73;4.47;;;19.50;88.10;;;;;;10221819;29;20266;-80
2022/09/08 05:57:50;;;;;;;10.03;5.57;;;19.60;88.00;;;;;;10188148;29;20651;-80
2022/09/08 06:03:12;;;;;;;8.13;5.35;;;19.60;87.50;;;;;;10200715;29;20295;-80
2022/09/08 06:08:15;;;;;;;10.57;4.83;;;19.50;88.50;;;;;;10242276;28;20285;-80
2022/09/08 06:13:18;;;;;;;7.90;4.37;;;19.50;86.60;;;;;;10251690;28;20316;-80
2022/09/08 06:18:20;;;;;;;9.93;4.70;;;19.10;97.50;;;;;;10201691;28;1166639;-80
2022/09/08 06:23:23;;;;;;;8.00;5.00;;;19.60;93.80;;;;;;10202983;29;20281;-79
2022/09/08 06:28:34;;;;;;;11.30;5.23;;;19.60;94.50;;;;;;10220692;29;20239;-80
2022/09/08 06:33:40;;;;;;;16.80;5.63;;;19.60;94.00;;;;;;10212887;29;20671;-80
2022/09/08 06:38:47;;;;;;;8.13;4.60;;;18.80;90.30;;;;;;10220020;29;20262;-80
2022/09/08 06:43:56;;;;;;;9.63;5.47;;;18.10;99.10;;;;;;10163451;29;20267;-79
2022/09/08 06:48:59;;;;;;;13.97;6.00;;;19.20;93.10;;;;;;10174322;29;20227;-79
2022/09/08 06:54:10;;;;;;;51.03;8.17;;;;;;;;;;10182770;29;20258;-80
2022/09/08 06:59:22;;;;;;;27.60;7.17;;;19.30;94.10;;;;;;10224903;29;20301;-79
2022/09/08 07:04:39;;;;;;;29.23;5.83;;;19.40;92.10;;;;;;10211391;29;20227;-80
2022/09/08 07:10:19;;;;;;;17.93;5.60;;;19.60;88.80;;;;;;10227395;29;20256;-79
2022/09/08 07:15:22;;;;;;;23.55;5.75;;;;;;;;;;10211977;29;20270;-80
2022/09/08 07:20:27;;;;;;;19.02;6.68;;;20.40;84.10;;;;;;10233504;28;20624;-80
2022/09/08 07:25:49;;;;;;;18.58;6.47;;;20.50;82.30;;;;;;10210534;29;20239;-80
2022/09/08 07:31:02;;;;;;;12.48;4.53;;;20.70;82.70;;;;;;10239510;29;20242;-80
2022/09/08 07:36:51;;;;;;;18.77;5.18;;;20.90;82.20;;;;;;10232990;29;20234;-80
2022/09/08 07:41:54;;;;;;;10.20;5.18;;;21.10;81.40;;;;;;10087657;29;20728;-81
2022/09/08 07:47:09;;;;;;;14.70;5.70;;;21.10;80.40;;;;;;10089598;29;20252;-80
2022/09/08 07:52:20;;;;;;;6.88;4.20;;;21.20;79.80;;;;;;10102998;29;20256;-80
2022/09/08 07:57:28;;;;;;;9.68;4.80;;;21.30;80.30;;;;;;10087764;29;20244;-80
2022/09/08 08:03:07;;;;;;;7.85;5.68;;;21.40;79.40;;;;;;10087929;29;20285;-80
2022/09/08 08:08:37;;;;;;;10.48;5.07;;;21.20;78.30;;;;;;10087942;29;20248;-79
2022/09/08 08:13:54;;;;;;;11.10;5.22;;;21.50;79.10;;;;;;10126618;29;20262;-79
2022/09/08 08:19:24;;;;;;;10.70;5.30;;;21.60;78.60;;;;;;10197869;29;20250;-79
2022/09/08 08:25:04;;;;;;;7.03;5.07;;;21.50;79.40;;;;;;10214301;29;20262;-81
2022/09/08 08:30:21;;;;;;;10.00;4.68;;;21.50;78.30;;;;;;10224504;29;20610;-79
2022/09/08 08:35:57;;;;;;;5.78;4.82;;;21.60;79.10;;;;;;10205496;29;20715;-79
2022/09/08 08:41:15;;;;;;;9.60;5.10;;;21.50;79.60;;;;;;10206917;29;20757;-79
2022/09/08 08:46:32;;;;;;;13.93;6.00;;;21.90;78.60;;;;;;10202420;29;20324;-80
2022/09/08 08:52:05;;;;;;;10.93;5.00;;;21.90;80.40;;;;;;10207216;29;20235;-79
2022/09/08 08:57:41;;;;;;;7.28;4.70;;;21.80;79.30;;;;;;10207646;29;20282;-79
2022/09/08 09:03:11;;;;;;;6.32;4.47;;;21.70;80.00;;;;;;10205689;29;20230;-81
2022/09/08 09:08:27;;;;;;;7.72;4.75;;;21.90;79.90;;;;;;10207465;29;20238;-80
2022/09/08 09:13:51;;;;;;;7.05;4.97;;;22.00;78.40;;;;;;10206830;29;20253;-80
2022/09/08 09:19:12;;;;;;;6.70;4.72;;;22.10;80.80;;;;;;10206654;29;20266;-80
2022/09/08 09:24:24;;;;;;;6.45;5.13;;;22.00;79.50;;;;;;10212039;29;20611;-81
2022/09/08 09:29:27;;;;;;;7.30;3.72;;;21.90;79.10;;;;;;10243944;28;20241;-80
2022/09/08 09:34:55;;;;;;;11.07;6.00;;;22.00;79.60;;;;;;10227311;28;20273;-80
2022/09/08 09:40:32;;;;;;;11.15;4.78;;;21.90;79.80;;;;;;10244370;28;20238;-80
2022/09/08 09:46:06;;;;;;;9.82;5.88;;;22.10;80.50;;;;;;10253547;28;20234;-80
2022/09/08 09:51:31;;;;;;;8.32;5.00;;;22.20;78.90;;;;;;9790516;29;10000047;-81
2022/09/08 09:56:49;;;;;;;12.45;5.97;;;22.10;79.60;;;;;;10127972;29;20236;-80
2022/09/08 10:02:00;;;;;;;5.63;4.03;;;22.20;81.20;;;;;;10120495;29;20300;-80
2022/09/08 10:07:11;;;;;;;8.90;5.25;;;22.20;78.80;;;;;;10097961;29;20299;-81
2022/09/08 10:12:36;;;;;;;7.30;5.00;;;22.30;79.30;;;;;;10127361;29;20295;-81
2022/09/08 10:18:00;;;;;;;8.25;4.82;;;22.20;81.30;;;;;;10127564;29;20271;-81
2022/09/08 10:23:24;;;;;;;7.13;4.50;;;22.30;79.00;;;;;;10122444;29;20240;-80
2022/09/08 10:28:54;;;;;;;14.07;5.65;;;22.40;79.20;;;;;;10137498;29;20289;-83
2022/09/08 10:34:06;;;;;;;6.55;4.68;;;22.30;78.50;;;;;;10156638;29;20260;-83
2022/09/08 10:39:24;;;;;;;5.57;4.07;;;22.40;78.50;;;;;;10156294;29;20231;-83
2022/09/08 10:44:53;;;;;;;15.40;5.57;;;22.30;78.70;;;;;;10148229;29;20654;-83
2022/09/08 10:50:17;;;;;;;9.60;4.25;;;22.60;78.40;;;;;;10162618;29;20688;-80
2022/09/08 10:55:37;;;;;;;7.30;4.60;;;22.40;79.90;;;;;;10149637;29;20255;-79
2022/09/08 11:00:48;;;;;;;7.60;6.07;;;22.40;78.60;;;;;;10147948;29;20238;-80
2022/09/08 11:05:55;;;;;;;17.17;5.25;;;22.40;79.60;;;;;;10166972;29;20610;-80
2022/09/08 11:11:16;;;;;;;11.15;5.10;;;22.50;79.10;;;;;;10150775;29;20752;-80
2022/09/08 11:16:29;;;;;;;7.28;5.38;;;22.50;81.60;;;;;;10166134;28;20265;-80
2022/09/08 11:21:45;;;;;;;8.77;5.00;;;22.30;78.90;;;;;;10221382;29;20297;-79
2022/09/08 11:27:01;;;;;;;10.70;5.15;;;22.40;78.80;;;;;;10248961;28;20237;-80
2022/09/08 11:32:25;;;;;;;6.68;4.45;;;22.30;79.30;;;;;;10242957;29;21030;-80
2022/09/08 11:38:02;;;;;;;9.70;4.40;;;22.40;78.90;;;;;;10246009;29;20687;-80
2022/09/08 11:43:14;;;;;;;12.20;5.45;;;22.40;78.90;;;;;;10247585;29;20727;-80
2022/09/08 11:48:30;;;;;;;10.32;6.63;;;23.40;77.80;;;;;;10232356;29;20292;-79
2022/09/08 11:53:46;;;;;;;20.55;6.88;;;23.60;77.40;;;;;;10250164;29;20280;-79
2022/09/08 11:59:37;;;;;;;16.05;6.50;;;23.30;79.00;;;;;;10232686;28;20691;-79
2022/09/08 12:04:59;;;;;;;19.83;7.72;;;23.30;77.80;;;;;;10228304;28;20677;-79
2022/09/08 12:10:53;;;;;;;16.63;6.32;;;22.40;81.80;;;;;;10244686;29;20234;-83
2022/09/08 12:16:00;;;;;;;12.90;6.68;;;23.90;76.20;;;;;;10229552;28;20273;-81
2022/09/08 12:21:12;;;;;;;16.77;6.13;;;24.10;74.60;;;;;;10245517;28;20238;-80
2022/09/08 12:26:33;;;;;;;9.50;5.88;;;24.10;73.60;;;;;;10249795;28;20227;-80
2022/09/08 12:31:48;;;;;;;11.63;4.53;;;24.30;73.50;;;;;;10248432;28;20304;-81
2022/09/08 12:37:02;;;;;;;6.70;5.13;;;24.40;72.20;;;;;;10247079;29;20249;-81
2022/09/08 12:42:04;;;;;;;15.25;5.22;;;24.50;72.50;;;;;;10242208;28;20700;-81
2022/09/08 12:47:30;;;;;;;16.85;5.20;;;24.50;72.60;;;;;;10229378;28;20282;-80
2022/09/08 12:52:58;;;;;;;8.18;4.65;;;24.60;71.40;;;;;;10226606;29;20246;-80
2022/09/08 12:58:01;;;;;;;16.33;4.90;;;24.40;70.90;;;;;;10245784;28;20229;-82
2022/09/08 13:03:10;;;;;;;11.30;5.53;;;24.30;72.80;;;;;;10227695;29;20758;-81
2022/09/08 13:08:18;;;;;;;7.05;4.63;;;24.40;72.70;;;;;;10246983;28;20238;-81
2022/09/08 13:13:41;;;;;;;7.88;4.60;;;24.50;70.20;;;;;;10215016;29;20257;-79
2022/09/08 13:19:10;;;;;;;10.75;5.63;;;24.40;72.10;;;;;;10227016;28;20304;-80
2022/09/08 13:24:38;;;;;;;8.15;4.18;;;24.30;73.00;;;;;;10245614;29;20234;-80
2022/09/08 13:29:59;;;;;;;9.73;4.57;;;24.30;73.30;;;;;;10225227;28;20230;-79
2022/09/08 13:35:21;;;;;;;13.27;4.47;;;24.10;70.10;;;;;;10214784;28;20788;-79
2022/09/08 13:40:46;;;;;;;7.45;4.63;;;24.00;73.30;;;;;;10229880;28;20659;-79
2022/09/08 13:46:04;;;;;;;10.52;4.93;;;23.90;74.90;;;;;;10246257;28;20241;-79
2022/09/08 13:51:26;;;;;;;6.97;4.70;;;23.90;74.70;;;;;;10246415;28;20226;-79
2022/09/08 13:56:47;;;;;;;14.82;4.30;;;23.90;73.90;;;;;;10228394;29;20253;-83
2022/09/08 14:01:50;;;;;;;14.25;5.47;;;23.70;71.60;;;;;;10227391;29;20230;-80
2022/09/08 14:07:05;;;;;;;10.57;5.20;;;23.60;72.60;;;;;;10246036;29;20234;-79
2022/09/08 14:12:26;;;;;;;8.10;4.38;;;23.60;71.40;;;;;;10246761;28;20675;-79
2022/09/08 14:17:43;;;;;;;9.15;4.53;;;23.50;74.20;;;;;;10244501;29;20324;-79
2022/09/08 14:23:11;;;;;;;12.75;4.45;;;23.60;74.00;;;;;;10228506;28;20252;-79
2022/09/08 14:28:27;;;;;;;7.95;4.60;;;23.40;75.60;;;;;;10230519;28;20226;-79
2022/09/08 14:33:33;;;;;;;8.77;5.20;;;23.40;70.60;;;;;;10249699;28;20242;-79
2022/09/08 14:38:50;;;;;;;24.98;6.07;;;23.40;77.00;;;;;;10235802;29;20593;-79
2022/09/08 14:44:24;;;;;;;14.35;5.20;;;23.40;74.80;;;;;;10252709;28;20237;-80
2022/09/08 14:49:47;;;;;;;13.27;5.00;;;23.20;76.00;;;;;;10051148;29;20237;-79
2022/09/08 14:55:13;;;;;;;17.20;5.07;;;23.30;76.60;;;;;;10036308;29;20309;-80
2022/09/08 15:00:22;;;;;;;11.25;5.20;;;23.10;75.30;;;;;;10048674;29;20272;-80
2022/09/08 15:05:27;;;;;;;11.00;4.47;;;23.10;80.10;;;;;;10036554;29;20257;-80
2022/09/08 15:10:37;;;;;;;9.52;4.47;;;23.10;81.30;;;;;;10051538;29;20253;-79
2022/09/08 15:15:42;;;;;;;19.98;5.15;;;22.80;73.00;;;;;;10018444;29;20272;-79
2022/09/08 15:21:16;;;;;;;8.27;4.78;;;22.50;74.20;;;;;;10051005;29;20233;-79
2022/09/08 15:26:31;;;;;;;7.43;4.18;;;22.30;74.80;;;;;;10134815;29;20757;-79
2022/09/08 15:31:40;;;;;;;14.05;4.68;;;22.10;76.00;;;;;;10172056;29;20243;-79
2022/09/08 15:36:54;;;;;;;15.98;4.50;;;22.00;77.30;;;;;;10172503;29;20255;-79
2022/09/08 15:42:23;;;;;;;14.93;4.97;;;21.90;77.00;;;;;;9850837;28;9999820;-79
2022/09/08 15:47:38;;;;;;;8.52;4.88;;;21.80;79.20;;;;;;10181815;29;20243;-79
2022/09/08 15:53:00;;;;;;;9.95;5.07;;;21.70;80.40;;;;;;10168568;29;20235;-79
2022/09/08 15:58:12;;;;;;;9.55;4.63;;;21.60;80.10;;;;;;10169032;29;20629;-79
2022/09/08 16:03:15;;;;;;;27.90;7.00;;;21.50;78.00;;;;;;10166833;29;20240;-80
2022/09/08 16:08:35;;;;;;;18.02;5.10;;;21.60;81.60;;;;;;10163668;29;20291;-79
2022/09/08 16:14:00;;;;;;;11.43;4.38;;;22.60;77.90;;;;;;10167625;29;20306;-80
2022/09/08 16:19:07;;;;;;;14.82;5.00;;;22.50;77.90;;;;;;10224626;29;20266;-79
2022/09/08 16:24:53;;;;;;;13.15;5.05;;;23.40;74.70;;;;;;10243891;28;20977;-83
2022/09/08 16:30:01;;;;;;;16.88;4.35;;;23.90;74.30;;;;;;10234338;29;20309;-80
2022/09/08 16:35:16;;;;;;;16.35;4.45;;;23.90;74.50;;;;;;10226157;29;20371;-80
2022/09/08 16:40:28;;;;;;;12.55;5.10;;;24.20;73.70;;;;;;10248287;28;20229;-80
2022/09/08 16:45:38;;;;;;;8.43;4.60;;;24.10;74.60;;;;;;10229131;28;20347;-80
2022/09/08 16:51:05;;;;;;;6.47;4.53;;;24.20;74.40;;;;;;10228201;28;20234;-80
2022/09/08 16:56:17;;;;;;;4.88;3.67;;;23.90;76.40;;;;;;10226170;29;20297;-81
2022/09/08 17:01:43;;;;;;;5.03;3.80;;;24.10;76.10;;;;;;10247099;28;20242;-80
2022/09/08 17:06:58;;;;;;;8.07;4.03;;;24.00;76.90;;;;;;10234217;29;20234;-81
2022/09/08 17:12:31;;;;;;;4.95;3.50;;;24.00;77.40;;;;;;10247372;28;20241;-81
2022/09/08 17:17:34;;;;;;;10.10;4.22;;;24.00;78.10;;;;;;10218575;29;20265;-81
2022/09/08 17:23:00;;;;;;;5.68;3.03;;;24.00;78.80;;;;;;10247486;29;20289;-80
2022/09/08 17:28:12;;;;;;;7.07;3.72;;;24.00;80.90;;;;;;10246874;28;20671;-80
2022/09/08 17:33:17;;;;;;;5.53;3.75;;;23.90;81.60;;;;;;10244753;29;20234;-81
2022/09/08 17:38:39;;;;;;;5.13;4.10;;;23.90;82.00;;;;;;10230323;28;20277;-80
2022/09/08 17:44:08;;;;;;;5.65;3.40;;;23.80;82.70;;;;;;10244887;28;20241;-80
2022/09/08 17:49:23;;;;;;;4.63;3.53;;;23.90;83.30;;;;;;10241300;28;20859;-80
2022/09/08 17:54:39;;;;;;;7.00;3.55;;;23.80;84.50;;;;;;10245580;29;20301;-80
2022/09/08 18:00:00;;;;;;;5.90;3.65;;;23.70;85.40;;;;;;10224797;28;20289;-81
2022/09/08 18:05:11;;;;;;;7.13;3.17;;;23.70;85.80;;;;;;10247565;28;20289;-81
2022/09/08 18:10:38;;;;;;;6.43;3.65;;;23.70;86.20;;;;;;10250218;28;20672;-82
2022/09/08 18:23:38;;;;;;;;;;;;;;;;;;;;;
2022/09/08 18:28:47;;;;;;;5.53;3.63;;;23.40;90.60;;;;;;10165746;29;20255;-82
2022/09/08 18:34:17;;;;;;;4.40;3.20;;;23.40;90.60;;;;;;10173085;29;20700;-82
2022/09/08 18:39:30;;;;;;;5.68;3.67;;;23.40;90.60;;;;;;10173376;29;20290;-81
2022/09/08 18:44:38;;;;;;;6.07;3.40;;;23.40;91.00;;;;;;10154645;29;20701;-80
2022/09/08 18:50:08;;;;;;;7.25;3.60;;;23.30;91.60;;;;;;10172957;29;20247;-80
2022/09/08 18:55:36;;;;;;;6.40;3.92;;;23.30;91.30;;;;;;10173868;29;20262;-81
2022/09/08 19:01:13;;;;;;;16.55;9.48;;;23.30;91.90;;;;;;10171921;29;20239;-81
2022/09/08 19:06:39;;;;;;;18.25;11.02;;;21.30;99.90;;;;;;10171422;29;20243;-80
2022/09/08 19:12:08;;;;;;;13.93;10.00;;;15.70;99.90;;;;;;10171740;29;20677;-80
2022/09/08 19:17:33;;;;;;;16.90;10.33;;;15.50;99.90;;;;;;10180249;29;20320;-79
2022/09/08 19:22:35;;;;;;;19.97;11.07;;;15.30;99.90;;;;;;10228684;29;21064;-80
2022/09/08 19:28:05;;;;;;;18.00;10.53;;;15.00;99.90;;;;;;10250056;28;20226;-80
2022/09/08 19:33:29;;;;;;;21.53;11.27;;;15.10;99.90;;;;;;10230766;29;20309;-80
2022/09/08 19:39:00;;;;;;;19.30;10.33;;;14.90;99.90;;;;;;10248079;29;20335;-80
2022/09/08 19:44:40;;;;;;;19.60;11.60;;;14.80;99.90;;;;;;10246619;28;20246;-79
2022/09/08 19:49:45;;;;;;;16.17;12.13;;;14.70;99.90;;;;;;10244410;29;20234;-82
2022/09/08 19:54:52;;;;;;;15.13;11.93;;;14.60;99.90;;;;;;10230408;28;20805;-80
2022/09/08 19:59:57;;;;;;;17.83;12.47;;;14.70;99.90;;;;;;10265546;28;20293;-80
2022/09/08 20:05:00;;;;;;;20.43;12.53;;;14.90;99.90;;;;;;10260026;28;20244;-80
2022/09/08 20:10:32;;;;;;;14.77;11.97;;;15.10;99.90;;;;;;10215721;29;20276;-80
2022/09/08 20:15:43;;;;;;;17.37;14.13;;;15.20;99.90;;;;;;10229791;29;20317;-80
2022/09/08 20:21:19;;;;;;;14.10;11.27;;;15.20;99.90;;;;;;10231405;29;20262;-80
2022/09/08 20:26:29;;;;;;;11.97;8.53;;;15.40;99.90;;;;;;10227342;28;20237;-80
2022/09/08 20:31:37;;;;;;;12.43;8.60;;;16.40;99.90;;;;;;10246369;29;20246;-80
2022/09/08 20:36:55;;;;;;;11.50;9.77;;;16.70;99.90;;;;;;10244458;29;20722;-80
2022/09/08 20:42:14;;;;;;;14.03;9.50;;;16.50;99.90;;;;;;10247707;29;20300;-80
2022/09/08 20:47:27;;;;;;;21.80;12.00;;;16.20;99.90;;;;;;10230261;29;20272;-80
2022/09/08 20:52:51;;;;;;;15.97;10.13;;;16.40;99.90;;;;;;10246494;29;20289;-80
2022/09/08 20:58:00;;;;;;;12.07;8.33;;;17.10;99.90;;;;;;10245685;28;20301;-80
2022/09/08 21:03:25;;;;;;;12.80;9.97;;;18.10;99.90;;;;;;10246429;29;20277;-80
2022/09/08 21:08:35;;;;;;;10.23;6.13;;;16.70;99.90;;;;;;10230534;28;20250;-80
2022/09/08 21:14:02;;;;;;;18.70;11.17;;;16.60;99.90;;;;;;10231383;29;20226;-80
2022/09/08 21:19:18;;;;;;;14.47;12.77;;;17.10;99.90;;;;;;10245227;29;20308;-80
2022/09/08 21:24:35;;;;;;;16.90;12.30;;;16.80;99.90;;;;;;10245209;29;20640;-81
2022/09/08 21:30:19;;;;;;;16.20;12.83;;;16.10;99.90;;;;;;10242482;28;20280;-79
2022/09/08 21:35:36;;;;;;;18.57;14.20;;;16.40;99.90;;;;;;10228063;28;20638;-79
2022/09/08 21:41:01;;;;;;;21.90;13.77;;;16.00;99.90;;;;;;10219881;29;20233;-79
2022/09/08 21:46:22;;;;;;;17.77;13.53;;;16.30;99.90;;;;;;10214998;29;20234;-80
2022/09/08 21:51:31;;;;;;;16.40;12.83;;;16.10;99.90;;;;;;10253366;29;20264;-81
2022/09/08 21:56:44;;;;;;;8.00;7.20;;;16.10;99.90;;;;;;10252413;28;20246;-79
2022/09/08 22:02:13;;;;;;;5.57;4.57;;;16.80;99.90;;;;;;10253231;28;20311;-80
2022/09/08 22:07:27;;;;;;;4.43;3.67;;;18.30;99.90;;;;;;10254305;28;20270;-80
2022/09/08 22:12:32;;;;;;;5.35;4.50;;;20.20;99.90;;;;;;10255046;28;20623;-80
2022/09/08 22:17:52;;;;;;;5.82;4.72;;;21.00;99.90;;;;;;10221191;29;20898;-79
2022/09/08 22:23:02;;;;;;;4.30;3.70;;;21.30;99.90;;;;;;10237747;29;20229;-79
2022/09/08 22:28:13;;;;;;;7.43;4.22;;;21.50;99.90;;;;;;10237411;28;20297;-79
2022/09/08 22:33:22;;;;;;;7.85;4.70;;;21.60;99.90;;;;;;10226110;29;20239;-80
2022/09/08 22:38:59;;;;;;;6.47;4.13;;;21.80;99.90;;;;;;10253530;29;20273;-80
2022/09/08 22:44:29;;;;;;;4.65;3.90;;;21.80;99.90;;;;;;10235248;29;20238;-80
2022/09/08 22:49:56;;;;;;;5.72;4.05;;;21.80;99.90;;;;;;10252184;28;20281;-80
2022/09/08 22:54:59;;;;;;;5.20;4.10;;;21.90;99.90;;;;;;10236591;29;20992;-81
2022/09/08 23:00:14;;;;;;;4.13;3.63;;;21.90;99.90;;;;;;10251838;29;20237;-80
2022/09/08 23:05:25;;;;;;;4.13;3.25;;;21.90;99.90;;;;;;10252934;28;20233;-80
2022/09/08 23:10:29;;;;;;;5.13;3.95;;;21.90;99.90;;;;;;10234285;29;20277;-80
2022/09/08 23:15:53;;;;;;;4.25;3.70;;;21.90;99.90;;;;;;10251980;29;20242;-80
2022/09/08 23:21:25;;;;;;;6.45;4.10;;;21.90;99.90;;;;;;10235498;29;20261;-80
2022/09/08 23:26:50;;;;;;;5.20;3.83;;;21.90;99.90;;;;;;10252477;29;20226;-80
2022/09/08 23:32:20;;;;;;;3.53;3.05;;;21.90;99.90;;;;;;10233925;28;20297;-80
2022/09/08 23:37:33;;;;;;;4.43;3.35;;;21.80;99.90;;;;;;10234514;29;20249;-80
2022/09/08 23:42:44;;;;;;;4.60;4.18;;;21.90;99.90;;;;;;10234907;29;20207;-80
2022/09/08 23:47:51;;;;;;;3.58;2.95;;;21.80;99.90;;;;;;10251852;29;20312;-80
2022/09/08 23:53:01;;;;;;;3.92;3.63;;;21.80;99.90;;;;;;10249603;29;20241;-80
2022/09/08 23:58:12;;;;;;;4.45;3.55;;;21.80;99.90;;;;;;10250709;28;20681;-80
